Time;durP1;ratioP1;P1;durP2;ratioP2;P2;SDS_P1;SDS_P2;PMS_P1;PMS_P2;Temp;Humidity;BMP_temperature;BMP_pressure;BME280_temperature;BME280_humidity;BME280_pressure;Samples;Min_cycle;Max_cycle;Signal;HPM_P1;HPM_P2
2023/09/04 00:01:37;;;;;;;7.35;6.60;;;;;;;16.48;73.52;99341.53;4899053;29;20051;-71
2023/09/04 00:04:03;;;;;;;8.75;7.10;;;;;;;16.50;73.51;99351.09;4897191;29;20028;-69
2023/09/04 00:06:29;;;;;;;9.27;7.32;;;;;;;16.43;74.10;99360.50;4895896;29;20032;-71
2023/09/04 00:08:57;;;;;;;9.05;6.97;;;;;;;16.37;73.98;99362.34;4897223;29;20128;-71
2023/09/04 00:11:26;;;;;;;10.10;7.25;;;;;;;16.39;74.33;99371.06;4897798;29;20036;-71
2023/09/04 00:13:52;;;;;;;7.85;6.35;;;;;;;16.35;74.18;99371.84;4896448;29;20042;-69
2023/09/04 00:16:17;;;;;;;7.20;6.50;;;;;;;16.35;74.47;99363.69;4895403;29;20040;-70
2023/09/04 00:18:43;;;;;;;7.68;6.97;;;;;;;16.33;74.14;99360.41;4895348;29;20028;-70
2023/09/04 00:21:08;;;;;;;7.60;6.50;;;;;;;16.30;74.57;99361.72;4896087;29;20102;-71
2023/09/04 00:23:33;;;;;;;7.88;7.13;;;;;;;16.11;74.64;99348.69;4895085;29;20477;-70
2023/09/04 00:25:59;;;;;;;7.50;6.80;;;;;;;16.07;75.01;99361.13;4895922;29;20040;-72
2023/09/04 00:28:24;;;;;;;7.45;6.75;;;;;;;16.15;74.88;99369.66;4894932;29;20826;-71
2023/09/04 00:30:50;;;;;;;7.07;6.38;;;;;;;16.13;74.97;99371.81;4895039;29;20036;-71
2023/09/04 00:33:15;;;;;;;7.00;6.03;;;;;;;16.18;75.16;99385.47;4878908;29;20033;-71
2023/09/04 00:35:40;;;;;;;7.28;5.90;;;;;;;16.10;75.34;99377.78;4894846;29;20052;-71
2023/09/04 00:38:06;;;;;;;7.47;6.35;;;;;;;16.07;75.24;99383.72;4879274;29;20032;-69
2023/09/04 00:40:31;;;;;;;7.20;6.38;;;;;;;16.11;75.27;99390.28;4894674;29;20484;-70
2023/09/04 00:42:56;;;;;;;10.05;6.60;;;;;;;16.08;75.19;99382.63;4881447;29;20044;-73
2023/09/04 00:45:22;;;;;;;8.73;7.00;;;;;;;16.12;75.19;99386.50;4905539;29;20048;-71
2023/09/04 00:47:47;;;;;;;6.78;6.07;;;;;;;16.20;74.80;99391.47;4896498;29;20112;-72
2023/09/04 00:50:16;;;;;;;7.97;7.10;;;;;;;16.15;75.21;99385.97;4864726;29;20037;-72
2023/09/04 00:52:41;;;;;;;8.00;7.18;;;;;;;16.10;75.38;99380.50;4910522;29;20110;-73
2023/09/04 00:55:07;;;;;;;8.80;6.55;;;;;;;16.14;75.39;99395.22;4863637;29;20048;-71
2023/09/04 00:57:34;;;;;;;8.85;7.18;;;;;;;16.20;74.98;99388.75;4894815;29;20076;-72
2023/09/04 01:00:05;;;;;;;8.65;6.50;;;;;;;16.21;74.94;99385.00;4864235;29;20036;-72
2023/09/04 01:02:31;;;;;;;7.85;7.05;;;;;;;16.04;75.13;99361.63;4879606;29;20045;-72
2023/09/04 01:04:56;;;;;;;8.23;6.82;;;;;;;15.95;75.43;99363.97;4883013;29;20542;-71
2023/09/04 01:07:21;;;;;;;9.13;7.32;;;;;;;16.10;75.53;99388.66;4898552;29;20071;-73
2023/09/04 01:09:47;;;;;;;9.05;7.18;;;;;;;16.05;75.78;99396.72;4882850;29;20024;-70
2023/09/04 01:12:19;;;;;;;8.02;7.22;;;;;;;16.07;75.55;99391.03;4899454;29;20127;-72
2023/09/04 01:14:45;;;;;;;7.78;6.78;;;;;;;16.03;75.73;99388.00;4882750;29;20048;-71
2023/09/04 01:17:12;;;;;;;8.40;6.90;;;;;;;16.04;75.67;99395.06;4867309;29;20028;-71
2023/09/04 01:19:38;;;;;;;11.07;6.75;;;;;;;16.04;75.58;99400.50;4882786;29;20111;-70
2023/09/04 01:22:09;;;;;;;7.25;6.63;;;;;;;15.85;75.67;99394.53;4898127;29;20487;-73
2023/09/04 01:24:35;;;;;;;9.80;7.68;;;;;;;15.76;75.65;99387.88;4898305;29;20052;-73
2023/09/04 01:27:27;;;;;;;11.13;7.88;;;;;;;15.74;75.16;99383.75;4882704;29;20024;-71
2023/09/04 01:30:01;;;;;;;7.60;6.88;;;;;;;15.69;75.67;99383.66;4867195;29;20040;-70
2023/09/04 01:32:49;;;;;;;7.15;6.55;;;;;;;15.67;75.60;99385.81;4882259;29;20037;-68
2023/09/04 01:35:16;;;;;;;7.50;6.80;;;;;;;15.70;75.87;99388.88;4898020;29;20048;-70
2023/09/04 01:37:42;;;;;;;7.90;6.80;;;;;;;15.70;76.05;99382.63;4899353;29;20028;-69
2023/09/04 01:40:08;;;;;;;8.00;6.88;;;;;;;15.53;76.66;99365.50;4901116;29;20120;-69
2023/09/04 01:42:34;;;;;;;7.50;6.72;;;;;;;15.63;76.90;99376.53;4881941;29;20043;-69
2023/09/04 01:45:02;;;;;;;8.52;6.80;;;;;;;15.67;76.29;99383.09;4897644;29;20036;-69
2023/09/04 01:47:28;;;;;;;7.65;6.90;;;;;;;15.65;76.09;99379.81;4897666;29;20115;-70
2023/09/04 01:49:53;;;;;;;7.32;6.63;;;;;;;15.58;76.11;99373.72;4882200;29;20127;-68
2023/09/04 01:52:18;;;;;;;8.23;7.07;;;;;;;15.54;76.37;99376.09;4881799;29;20029;-68
2023/09/04 01:54:44;;;;;;;8.48;7.53;;;;;;;15.59;76.31;99380.81;4881886;29;20036;-68
2023/09/04 01:57:09;;;;;;;8.65;7.10;;;;;;;15.50;76.24;99376.84;4897615;29;20021;-68
2023/09/04 01:59:35;;;;;;;10.50;7.40;;;;;;;15.50;76.28;99377.69;4897333;29;20032;-68
2023/09/04 02:02:00;;;;;;;7.75;6.95;;;;;;;15.50;76.23;99371.41;4881799;29;20047;-69
2023/09/04 02:04:26;;;;;;;7.68;6.95;;;;;;;15.48;76.20;99373.56;4897414;29;20052;-70
2023/09/04 02:06:51;;;;;;;8.25;6.55;;;;;;;15.44;76.44;99372.38;4881871;29;20032;-69
2023/09/04 02:09:17;;;;;;;9.63;6.93;;;;;;;15.37;76.42;99355.44;4897343;29;20037;-73
2023/09/04 02:11:42;;;;;;;7.95;6.78;;;;;;;15.44;76.27;99366.94;4881927;29;20042;-73
2023/09/04 02:14:08;;;;;;;7.28;6.55;;;;;;;15.35;76.28;99368.44;4896900;29;20033;-71
2023/09/04 02:16:33;;;;;;;7.20;6.50;;;;;;;15.38;76.21;99367.94;4881374;29;20127;-68
2023/09/04 02:18:59;;;;;;;7.80;6.15;;;;;;;15.37;76.19;99371.72;4897065;29;20028;-69
2023/09/04 02:21:24;;;;;;;8.07;7.03;;;;;;;15.16;76.78;99346.97;4897044;29;20033;-71
2023/09/04 02:23:50;;;;;;;8.07;6.97;;;;;;;15.24;76.16;99360.13;4897145;29;20503;-69
2023/09/04 02:26:15;;;;;;;7.40;6.70;;;;;;;15.17;75.99;99345.06;4898571;29;20056;-72
2023/09/04 02:28:41;;;;;;;10.35;6.57;;;;;;;15.21;76.30;99347.06;4896958;29;20067;-72
2023/09/04 02:31:06;;;;;;;8.02;6.03;;;;;;;15.19;76.12;99346.44;4896974;29;20115;-72
2023/09/04 02:33:32;;;;;;;9.68;6.18;;;;;;;15.24;76.48;99354.69;4897314;29;20028;-73
2023/09/04 02:35:59;;;;;;;8.50;5.75;;;;;;;15.13;76.58;99323.03;4897081;29;20025;-71
2023/09/04 02:38:24;;;;;;;6.40;5.47;;;;;;;15.18;76.57;99342.13;4898107;29;20056;-69
2023/09/04 02:40:50;;;;;;;5.47;4.93;;;;;;;15.19;76.38;99343.75;4881527;29;20037;-72
2023/09/04 02:43:15;;;;;;;5.97;5.28;;;;;;;15.03;76.30;99328.28;4901624;29;20406;-71
2023/09/04 02:45:40;;;;;;;5.93;5.30;;;;;;;15.13;76.44;99343.91;4904350;29;20115;-70
2023/09/04 02:48:06;;;;;;;6.35;5.65;;;;;;;15.18;76.35;99358.41;4881290;29;20036;-72
2023/09/04 02:50:32;;;;;;;9.00;6.00;;;;;;;15.10;76.46;99349.81;4898153;29;20024;-71
2023/09/04 02:52:57;;;;;;;6.88;5.60;;;;;;;15.18;76.38;99358.41;4881133;29;20033;-71
2023/09/04 02:55:22;;;;;;;5.97;5.40;;;;;;;15.11;76.18;99341.44;4881328;29;20040;-71
2023/09/04 02:57:48;;;;;;;7.20;5.65;;;;;;;15.15;76.28;99367.03;4896814;29;20044;-70
2023/09/04 03:00:13;;;;;;;5.75;5.13;;;;;;;15.07;76.51;99348.44;4896599;29;20024;-69
2023/09/04 03:02:39;;;;;;;8.23;6.00;;;;;;;15.02;76.32;99340.22;4896242;29;20040;-68
2023/09/04 03:05:05;;;;;;;8.00;5.72;;;;;;;15.04;76.29;99357.06;4896664;29;20056;-72
2023/09/04 03:07:31;;;;;;;8.77;6.35;;;;;;;15.06;76.01;99360.34;4896456;29;20119;-67
2023/09/04 03:09:58;;;;;;;6.65;6.05;;;;;;;14.92;75.89;99339.19;4896640;29;20395;-68
2023/09/04 03:12:25;;;;;;;6.78;6.18;;;;;;;14.99;76.06;99354.25;4880691;29;20036;-67
2023/09/04 03:14:57;;;;;;;6.35;5.75;;;;;;;14.97;76.13;99353.69;4873016;29;20107;-67
2023/09/04 03:17:24;;;;;;;7.50;6.50;;;;;;;14.77;76.42;99350.59;4896208;29;20068;-70
2023/09/04 03:19:51;;;;;;;8.88;7.28;;;;;;;14.64;75.76;99337.34;4900283;29;20021;-67
2023/09/04 03:22:16;;;;;;;8.50;6.90;;;;;;;14.57;76.32;99336.66;4910847;29;20051;-68
2023/09/04 03:24:41;;;;;;;7.40;6.22;;;;;;;14.50;76.29;99327.84;4880668;29;20021;-71
2023/09/04 03:27:07;;;;;;;10.65;7.55;;;;;;;14.60;76.56;99328.03;4895910;29;20408;-68
2023/09/04 03:29:32;;;;;;;7.82;6.97;;;;;;;14.50;77.02;99330.56;4881003;29;20067;-69
2023/09/04 03:31:58;;;;;;;8.00;7.10;;;;;;;14.35;77.89;99324.84;4895866;29;20075;-70
2023/09/04 03:34:24;;;;;;;9.57;7.82;;;;;;;14.34;78.04;99324.03;4896058;29;20411;-69
2023/09/04 03:36:50;;;;;;;7.57;6.88;;;;;;;14.40;78.02;99331.19;4896996;29;20047;-70
2023/09/04 03:39:15;;;;;;;8.90;7.32;;;;;;;14.37;77.55;99307.28;4896190;29;20602;-71
2023/09/04 03:41:40;;;;;;;8.55;7.07;;;;;;;14.47;77.59;99321.00;4880104;29;20494;-71
2023/09/04 03:44:06;;;;;;;7.40;6.30;;;;;;;14.48;77.44;99319.13;4891330;29;20394;-70
2023/09/04 03:46:31;;;;;;;8.27;7.45;;;;;;;14.36;77.72;99318.34;4896747;29;20044;-70
2023/09/04 03:48:57;;;;;;;7.28;6.53;;;;;;;14.41;77.80;99340.13;4880021;29;20035;-71
2023/09/04 03:51:23;;;;;;;8.32;7.13;;;;;;;14.28;77.44;99319.50;4895235;29;20499;-70
2023/09/04 03:53:48;;;;;;;10.60;6.43;;;;;;;14.31;77.80;99334.50;4879939;29;20079;-70
2023/09/04 03:56:13;;;;;;;7.10;6.38;;;;;;;14.29;78.32;99342.84;4880080;29;20093;-71
2023/09/04 03:58:39;;;;;;;9.60;7.07;;;;;;;14.32;77.93;99347.00;4879954;29;20039;-68
2023/09/04 04:01:04;;;;;;;7.43;6.53;;;;;;;14.26;78.26;99337.09;4896497;29;20415;-70
2023/09/04 04:03:30;;;;;;;7.68;6.57;;;;;;;14.17;78.16;99349.34;4895532;29;20035;-69
2023/09/04 04:05:55;;;;;;;7.60;6.82;;;;;;;14.21;78.16;99345.13;4895364;29;20040;-71
2023/09/04 04:08:20;;;;;;;8.93;8.02;;;;;;;14.09;78.30;99325.34;4879928;29;20051;-71
2023/09/04 04:10:46;;;;;;;9.07;7.18;;;;;;;13.98;78.22;99320.78;4880081;29;20119;-69
2023/09/04 04:13:11;;;;;;;7.60;6.90;;;;;;;14.03;78.62;99342.53;4895368;29;20080;-70
2023/09/04 04:15:38;;;;;;;8.48;7.28;;;;;;;14.00;78.40;99352.00;4895235;29;20032;-69
2023/09/04 04:18:08;;;;;;;7.13;6.40;;;;;;;14.04;78.07;99355.03;4879453;29;20085;-68
2023/09/04 04:20:34;;;;;;;8.20;6.43;;;;;;;13.97;78.59;99343.50;4879524;29;20056;-70
2023/09/04 04:23:00;;;;;;;6.32;5.72;;;;;;;13.94;79.14;99338.56;4895173;29;20032;-70
2023/09/04 04:25:25;;;;;;;8.07;5.20;;;;;;;13.98;78.81;99356.00;4894934;29;20040;-70
2023/09/04 04:27:50;;;;;;;7.03;6.40;;;;;;;14.07;78.39;99349.16;4895030;29;20036;-70
2023/09/04 04:30:16;;;;;;;8.50;5.78;;;;;;;13.95;79.42;99346.47;4896217;29;20032;-71
2023/09/04 04:32:42;;;;;;;8.15;6.20;;;;;;;14.01;78.60;99342.78;4894739;29;20375;-71
2023/09/04 04:35:08;;;;;;;7.15;6.13;;;;;;;13.93;78.75;99332.34;4879406;29;20127;-73
2023/09/04 04:37:34;;;;;;;6.70;6.03;;;;;;;14.01;78.55;99350.09;4894386;29;20029;-72
2023/09/04 04:40:03;;;;;;;7.57;6.78;;;;;;;14.04;79.11;99355.03;4894806;29;20035;-72
2023/09/04 04:42:29;;;;;;;8.25;6.50;;;;;;;13.93;78.62;99336.94;4908038;29;20035;-72
2023/09/04 04:44:55;;;;;;;7.32;5.80;;;;;;;13.99;79.06;99349.50;4912587;29;20045;-72
2023/09/04 04:47:21;;;;;;;7.45;6.65;;;;;;;14.01;78.64;99344.69;4902610;29;20109;-71
2023/09/04 04:49:46;;;;;;;7.53;6.88;;;;;;;14.10;77.92;99360.31;4880915;29;20135;-73
2023/09/04 04:52:12;;;;;;;8.57;6.13;;;;;;;14.09;78.05;99357.88;4880960;29;20025;-71
2023/09/04 04:54:37;;;;;;;6.85;6.20;;;;;;;14.07;78.38;99358.09;4895392;29;20550;-72
2023/09/04 04:57:04;;;;;;;9.98;7.00;;;;;;;14.12;78.57;99354.69;4894628;29;20073;-71
2023/09/04 04:59:30;;;;;;;6.03;5.45;;;;;;;14.06;78.99;99355.63;4895855;29;20116;-70
2023/09/04 05:01:58;;;;;;;7.15;5.90;;;;;;;14.12;78.62;99351.97;4878937;29;20048;-70
2023/09/04 05:04:23;;;;;;;7.85;6.65;;;;;;;14.08;78.43;99339.94;4894609;29;20055;-70
2023/09/04 05:06:50;;;;;;;8.43;6.28;;;;;;;14.18;78.20;99351.00;4894722;29;20039;-71
2023/09/04 05:09:15;;;;;;;10.13;6.65;;;;;;;14.26;78.46;99348.75;4894758;29;20025;-70
2023/09/04 05:11:42;;;;;;;7.68;6.88;;;;;;;14.33;78.08;99359.47;4894395;29;20025;-71
2023/09/04 05:14:08;;;;;;;7.95;6.90;;;;;;;14.26;78.00;99353.34;4875806;29;20032;-71
2023/09/04 05:16:33;;;;;;;8.55;6.70;;;;;;;14.32;77.78;99358.66;4903131;29;20093;-70
2023/09/04 05:18:59;;;;;;;7.68;6.60;;;;;;;14.39;78.35;99358.53;4894280;29;20128;-71
2023/09/04 05:21:24;;;;;;;8.63;5.88;;;;;;;14.43;78.35;99354.25;4881975;29;20036;-70
2023/09/04 05:23:51;;;;;;;6.45;5.72;;;;;;;14.53;78.22;99358.00;4896791;29;20067;-73
2023/09/04 05:26:17;;;;;;;6.80;6.10;;;;;;;14.60;78.01;99355.16;4886180;29;20030;-72
2023/09/04 05:28:42;;;;;;;7.43;6.28;;;;;;;14.70;77.99;99358.06;4879036;29;20093;-70
2023/09/04 05:31:07;;;;;;;9.85;5.78;;;;;;;14.74;78.29;99366.53;4895455;29;20111;-70
2023/09/04 05:33:33;;;;;;;6.63;5.35;;;;;;;14.73;77.75;99349.44;4895333;29;20047;-70
2023/09/04 05:35:58;;;;;;;7.45;5.90;;;;;;;14.81;77.65;99357.19;4898795;29;20024;-71
2023/09/04 05:38:24;;;;;;;7.88;5.70;;;;;;;14.94;77.74;99356.03;4895639;29;20057;-71
2023/09/04 05:40:52;;;;;;;5.65;5.15;;;;;;;15.05;77.22;99358.69;4878845;29;20391;-72
2023/09/04 05:43:18;;;;;;;6.20;5.60;;;;;;;15.14;77.00;99357.25;4894766;29;20040;-72
2023/09/04 05:45:43;;;;;;;6.60;5.90;;;;;;;15.17;77.00;99337.75;4894186;29;20032;-71
2023/09/04 05:48:08;;;;;;;7.97;5.47;;;;;;;15.34;76.80;99355.91;4893646;29;20487;-73
2023/09/04 05:50:34;;;;;;;5.53;5.03;;;;;;;15.32;76.57;99344.50;4897351;29;20056;-73
2023/09/04 05:52:59;;;;;;;8.50;5.63;;;;;;;15.47;76.30;99347.50;4882047;29;20040;-71
2023/09/04 05:55:24;;;;;;;5.32;4.78;;;;;;;15.50;76.26;99333.41;4896228;29;20032;-71
2023/09/04 05:57:50;;;;;;;6.35;4.88;;;;;;;15.60;75.69;99336.28;4897072;29;20036;-71
2023/09/04 06:00:15;;;;;;;6.03;5.43;;;;;;;15.70;75.71;99344.59;4880106;29;20649;-71
2023/09/04 06:02:41;;;;;;;6.13;5.50;;;;;;;15.72;75.46;99364.16;4897155;29;20045;-71
2023/09/04 06:05:07;;;;;;;6.57;5.30;;;;;;;15.59;75.17;99332.75;4881097;29;20075;-72
2023/09/04 06:07:34;;;;;;;5.75;5.15;;;;;;;15.72;75.23;99358.75;4897616;29;20047;-71
2023/09/04 06:09:59;;;;;;;6.22;5.50;;;;;;;15.76;75.26;99365.31;4881919;29;20115;-70
2023/09/04 06:12:24;;;;;;;5.65;5.15;;;;;;;15.89;74.50;99367.69;4898260;29;20124;-71
2023/09/04 06:14:50;;;;;;;6.38;5.15;;;;;;;15.97;74.29;99361.81;4897231;29;20035;-73
2023/09/04 06:17:15;;;;;;;5.15;4.50;;;;;;;15.90;74.72;99334.00;4879688;29;20040;-72
2023/09/04 06:19:40;;;;;;;5.65;4.82;;;;;;;16.25;75.07;99375.25;4879791;29;20444;-73
2023/09/04 06:22:06;;;;;;;5.20;4.70;;;;;;;16.41;74.69;99374.38;4880225;29;20049;-71
2023/09/04 06:24:32;;;;;;;8.80;4.90;;;;;;;16.59;74.37;99381.44;4896843;29;20024;-71
2023/09/04 06:26:57;;;;;;;5.22;4.72;;;;;;;16.52;73.99;99348.97;4897983;29;20039;-71
2023/09/04 06:29:22;;;;;;;4.80;4.28;;;;;;;16.66;73.40;99383.94;4893261;29;20069;-72
2023/09/04 06:31:48;;;;;;;4.35;3.85;;;;;;;16.86;72.74;99392.31;4881076;29;20411;-71
2023/09/04 06:34:13;;;;;;;5.30;3.72;;;;;;;16.90;72.54;99388.00;4898253;29;20389;-72
2023/09/04 06:36:39;;;;;;;6.03;3.88;;;;;;;16.95;72.57;99386.16;4881448;29;20040;-71
2023/09/04 06:39:04;;;;;;;5.82;4.00;;;;;;;16.97;71.95;99392.16;4896956;29;20036;-71
2023/09/04 06:41:32;;;;;;;4.35;3.72;;;;;;;17.09;70.67;99402.91;4897997;29;20077;-71
2023/09/04 06:43:58;;;;;;;5.22;4.03;;;;;;;17.18;70.93;99410.34;4896557;29;20119;-71
2023/09/04 06:46:24;;;;;;;8.57;4.40;;;;;;;17.31;71.05;99403.69;4896561;29;20165;-72
2023/09/04 06:48:49;;;;;;;4.20;3.63;;;;;;;17.39;70.80;99403.19;4881293;29;20021;-68
2023/09/04 06:51:16;;;;;;;3.88;3.00;;;;;;;17.50;69.67;99401.41;4896175;29;20438;-69
2023/09/04 06:53:41;;;;;;;5.00;3.38;;;;;;;17.61;70.10;99390.34;4908458;29;20107;-72
2023/09/04 06:56:07;;;;;;;4.60;3.33;;;;;;;17.70;69.70;99393.41;4912401;29;20116;-71
2023/09/04 06:58:32;;;;;;;4.40;3.28;;;;;;;17.83;68.85;99410.13;4884716;29;20057;-71
2023/09/04 07:01:01;;;;;;;3.53;2.80;;;;;;;17.70;67.56;99383.34;4894998;29;20503;-71
2023/09/04 07:03:26;;;;;;;5.28;3.33;;;;;;;17.91;67.46;99400.66;4893215;29;20032;-71
2023/09/04 07:05:52;;;;;;;3.92;3.25;;;;;;;17.85;66.48;99380.69;4893225;29;20097;-72
2023/09/04 07:08:17;;;;;;;5.80;3.72;;;;;;;17.86;66.48;99387.81;4877773;29;20403;-73
2023/09/04 07:10:42;;;;;;;6.50;3.47;;;;;;;17.98;66.19;99394.97;4894754;29;20051;-71
2023/09/04 07:13:08;;;;;;;5.75;3.60;;;;;;;18.05;66.58;99392.81;4895695;29;20027;-72
2023/09/04 07:15:33;;;;;;;4.00;2.92;;;;;;;18.20;66.30;99392.94;4863527;29;20051;-72
2023/09/04 07:17:59;;;;;;;3.78;2.95;;;;;;;18.28;66.36;99389.69;4896927;29;20063;-71
2023/09/04 07:20:27;;;;;;;6.50;3.63;;;;;;;18.30;66.83;99392.97;4896282;29;20077;-71
2023/09/04 07:22:52;;;;;;;7.38;3.50;;;;;;;18.35;66.92;99396.53;4875073;29;20028;-72
2023/09/04 07:25:18;;;;;;;3.95;3.40;;;;;;;18.44;67.02;99394.13;4880560;29;20391;-71
2023/09/04 07:27:43;;;;;;;4.95;3.67;;;;;;;18.40;66.45;99388.41;4880680;29;20232;-71
2023/09/04 07:30:10;;;;;;;7.05;3.40;;;;;;;18.49;65.97;99391.47;4896370;29;20611;-70
2023/09/04 07:32:36;;;;;;;5.35;3.22;;;;;;;18.58;66.13;99393.41;4880149;29;20035;-71
2023/09/04 07:35:01;;;;;;;4.47;3.60;;;;;;;18.63;65.80;99392.59;4896083;29;20611;-71
2023/09/04 07:37:27;;;;;;;5.40;4.40;;;;;;;18.67;65.39;99382.78;4896031;29;20039;-72
2023/09/04 07:39:53;;;;;;;7.72;5.20;;;;;;;18.80;64.34;99389.66;4880526;29;20155;-72
2023/09/04 07:42:19;;;;;;;6.78;5.35;;;;;;;18.88;63.49;99387.22;4895784;29;20072;-73
2023/09/04 07:44:44;;;;;;;6.38;5.05;;;;;;;18.99;63.25;99391.63;4896180;29;20052;-72
2023/09/04 07:47:09;;;;;;;6.93;5.18;;;;;;;19.10;63.34;99393.28;4895939;29;20460;-72
2023/09/04 07:49:35;;;;;;;8.15;5.20;;;;;;;19.16;63.07;99384.00;4895739;29;20123;-72
2023/09/04 07:52:00;;;;;;;7.32;4.97;;;;;;;19.27;62.90;99393.88;4858980;29;20035;-72
2023/09/04 07:54:26;;;;;;;6.15;4.38;;;;;;;19.28;62.21;99384.56;4896920;29;20489;-72
2023/09/04 07:56:51;;;;;;;6.93;3.95;;;;;;;19.33;62.07;99381.03;4896918;29;20025;-73
2023/09/04 07:59:17;;;;;;;5.63;4.20;;;;;;;19.43;61.92;99402.94;4896079;29;20703;-71
2023/09/04 08:01:42;;;;;;;4.93;3.55;;;;;;;19.43;61.20;99402.94;4879913;29;20032;-73
2023/09/04 08:04:07;;;;;;;4.25;2.90;;;;;;;19.45;60.78;99383.53;4879968;29;20064;-73
2023/09/04 08:06:33;;;;;;;6.30;3.35;;;;;;;19.56;60.59;99390.63;4896765;29;20505;-72
2023/09/04 08:08:58;;;;;;;4.78;3.00;;;;;;;19.57;60.88;99384.06;4895550;29;20123;-73
2023/09/04 08:11:24;;;;;;;3.50;2.70;;;;;;;19.63;60.44;99385.69;4879435;29;20139;-74
2023/09/04 08:13:49;;;;;;;5.38;3.42;;;;;;;19.72;60.39;99384.88;4894569;29;20039;-73
2023/09/04 08:16:14;;;;;;;6.72;2.83;;;;;;;19.89;60.49;99395.53;4879666;29;20479;-73
2023/09/04 08:18:40;;;;;;;3.33;3.00;;;;;;;19.95;60.72;99394.44;4879577;29;20048;-73
2023/09/04 08:21:05;;;;;;;4.75;2.70;;;;;;;19.84;60.51;99365.44;4894963;29;20084;-73
2023/09/04 08:23:31;;;;;;;3.95;3.13;;;;;;;20.11;60.61;99397.97;4879602;29;20037;-71
2023/09/04 08:25:58;;;;;;;3.33;2.50;;;;;;;20.18;60.20;99388.38;4879658;29;20024;-71
2023/09/04 08:28:23;;;;;;;3.45;2.70;;;;;;;20.27;59.88;99386.72;4895179;29;20534;-73
2023/09/04 08:30:48;;;;;;;5.63;3.05;;;;;;;20.42;59.77;99405.03;4890148;29;20035;-71
2023/09/04 08:33:14;;;;;;;4.63;2.70;;;;;;;20.40;59.40;99390.78;4894582;29;20037;-71
2023/09/04 08:35:39;;;;;;;4.22;2.70;;;;;;;20.48;59.41;99410.19;4896323;29;20029;-71
2023/09/04 08:38:06;;;;;;;4.28;2.60;;;;;;;20.54;58.88;99403.59;4879462;29;20048;-72
2023/09/04 08:40:32;;;;;;;3.05;2.70;;;;;;;20.54;57.79;99386.34;4894998;29;20123;-71
2023/09/04 08:42:58;;;;;;;4.57;2.38;;;;;;;20.66;57.92;99395.88;4879014;29;20132;-71
2023/09/04 08:45:23;;;;;;;2.63;2.42;;;;;;;20.74;58.22;99393.66;4894949;29;20071;-72
2023/09/04 08:47:49;;;;;;;4.10;2.40;;;;;;;20.70;57.89;99367.97;4895043;29;20457;-71
2023/09/04 08:50:16;;;;;;;5.28;2.92;;;;;;;20.85;57.71;99381.56;4879264;29;20020;-71
2023/09/04 08:52:41;;;;;;;3.63;2.38;;;;;;;20.88;57.18;99370.03;4878984;29;20484;-71
2023/09/04 08:55:07;;;;;;;3.63;2.30;;;;;;;20.98;56.54;99386.44;4894892;29;20035;-71
2023/09/04 08:57:33;;;;;;;5.03;2.67;;;;;;;21.04;56.67;99385.28;4879360;29;20032;-72
2023/09/04 08:59:59;;;;;;;4.60;2.47;;;;;;;20.98;55.63;99376.28;4879181;29;20450;-72
2023/09/04 09:02:24;;;;;;;7.50;2.70;;;;;;;21.09;55.79;99385.28;4894674;29;20040;-72
2023/09/04 09:04:51;;;;;;;4.10;2.38;;;;;;;21.18;56.18;99386.31;4894872;29;20048;-71
2023/09/04 09:07:17;;;;;;;3.47;2.35;;;;;;;21.16;56.09;99383.06;4894755;29;21565;-71
2023/09/04 09:09:47;;;;;;;5.07;2.40;;;;;;;21.32;56.70;99381.84;4879272;29;20089;-72
2023/09/04 09:12:12;;;;;;;3.22;2.30;;;;;;;21.35;56.16;99375.81;4879111;29;20087;-71
2023/09/04 09:14:38;;;;;;;4.00;2.40;;;;;;;21.39;55.11;99374.13;4879035;29;20063;-71
2023/09/04 09:17:11;;;;;;;4.30;2.38;;;;;;;21.52;54.05;99380.88;4896025;29;20036;-71
2023/09/04 09:19:38;;;;;;;3.13;2.20;;;;;;;21.57;54.78;99378.91;4879351;29;20489;-71
2023/09/04 09:22:13;;;;;;;3.80;2.22;;;;;;;21.64;55.02;99373.91;4879049;29;20032;-72
2023/09/04 09:25:01;;;;;;;2.80;2.30;;;;;;;21.65;54.94;99358.28;4902604;29;20072;-71
2023/09/04 09:27:29;;;;;;;3.53;2.17;;;;;;;21.89;55.17;99376.44;4882710;29;20288;-71
2023/09/04 09:30:00;;;;;;;3.15;2.17;;;;;;;21.96;54.47;99374.16;4882624;29;20118;-71
2023/09/04 09:32:28;;;;;;;3.35;2.10;;;;;;;21.94;54.50;99367.34;4882266;29;20044;-71
2023/09/04 09:34:55;;;;;;;3.90;2.70;;;;;;;22.02;53.90;99375.78;4866954;29;20530;-72
2023/09/04 09:37:23;;;;;;;2.63;2.10;;;;;;;22.03;53.96;99349.16;4898151;29;20040;-72
2023/09/04 09:39:49;;;;;;;3.78;1.90;;;;;;;22.17;53.87;99365.75;4882584;29;20088;-71
2023/09/04 09:42:14;;;;;;;3.42;2.15;;;;;;;22.24;52.59;99363.47;4866598;29;20048;-73
2023/09/04 09:44:40;;;;;;;2.13;1.80;;;;;;;22.13;52.31;99349.03;4882330;29;20028;-72
2023/09/04 09:47:12;;;;;;;3.20;2.25;;;;;;;22.32;52.21;99362.81;4899324;29;20036;-72
2023/09/04 09:49:40;;;;;;;3.85;1.75;;;;;;;22.40;52.07;99348.44;4866774;29;20036;-74
2023/09/04 09:52:07;;;;;;;2.00;1.77;;;;;;;22.47;51.31;99348.91;4913296;29;20099;-73
2023/09/04 09:54:38;;;;;;;1.98;1.70;;;;;;;22.63;49.51;99361.38;4897393;29;20040;-74
2023/09/04 09:57:07;;;;;;;2.17;1.88;;;;;;;22.65;49.83;99350.91;4913200;29;20472;-73
2023/09/04 09:59:33;;;;;;;3.92;1.80;;;;;;;22.64;49.74;99341.84;4913063;29;20027;-74
2023/09/04 10:02:00;;;;;;;2.05;1.80;;;;;;;22.84;47.68;99354.50;4897542;29;20127;-73
2023/09/04 10:04:27;;;;;;;2.28;2.08;;;;;;;22.84;48.16;99357.25;4881983;29;20028;-74
2023/09/04 10:06:53;;;;;;;3.45;1.70;;;;;;;22.94;48.99;99351.59;4882118;29;20036;-73
2023/09/04 10:09:21;;;;;;;2.85;1.90;;;;;;;22.89;47.54;99332.44;4866146;29;20478;-73
2023/09/04 10:11:52;;;;;;;3.95;2.10;;;;;;;23.10;46.98;99353.03;4897235;29;20115;-74
2023/09/04 10:14:28;;;;;;;3.67;2.08;;;;;;;23.15;46.93;99343.88;4881671;29;20071;-73
2023/09/04 10:16:56;;;;;;;2.65;2.22;;;;;;;23.25;47.53;99343.69;4881936;29;20040;-72
2023/09/04 10:19:24;;;;;;;3.38;2.10;;;;;;;23.20;46.58;99314.34;4881751;29;20020;-73
2023/09/04 10:21:54;;;;;;;4.13;1.77;;;;;;;23.30;45.75;99333.44;4896973;29;20048;-73
2023/09/04 10:24:40;;;;;;;3.22;2.38;;;;;;;23.32;47.51;99327.63;4897072;29;20515;-73
2023/09/04 10:27:08;;;;;;;;;;;;;;;23.19;47.48;99329.25;4897679;29;20040;-73
2023/09/04 10:29:39;;;;;;;3.20;1.80;;;;;;;23.35;45.61;99316.91;4866108;29;19923;-73
2023/09/04 10:32:04;;;;;;;3.15;2.08;;;;;;;23.49;45.60;99324.38;4881140;29;20127;-73
2023/09/04 10:34:31;;;;;;;2.03;1.83;;;;;;;23.55;44.24;99314.94;4881590;29;20111;-71
2023/09/04 10:36:56;;;;;;;2.80;2.13;;;;;;;23.56;45.36;99300.88;4896501;29;20032;-71
2023/09/04 10:39:22;;;;;;;3.65;2.00;;;;;;;23.61;44.54;99280.72;4896976;29;20652;-71
2023/09/04 10:41:47;;;;;;;2.03;1.70;;;;;;;23.77;44.06;99288.38;4881229;29;20044;-71
2023/09/04 10:44:48;;;;;;;2.88;2.20;;;;;;;23.87;43.44;99301.13;4881240;29;20075;-73
2023/09/04 10:47:15;;;;;;;3.90;2.03;;;;;;;23.87;43.06;99285.44;4876867;29;20063;-72
2023/09/04 10:49:43;;;;;;;5.45;1.80;;;;;;;24.01;41.95;99288.19;4881242;29;20017;-71
2023/09/04 10:52:09;;;;;;;2.85;2.20;;;;;;;24.07;41.64;99289.75;4881016;29;20048;-71
2023/09/04 10:54:34;;;;;;;6.07;2.20;;;;;;;24.02;41.59;99265.03;4865576;29;20033;-75
2023/09/04 10:57:02;;;;;;;4.22;2.33;;;;;;;24.17;41.81;99288.72;4896740;29;20498;-72
2023/09/04 10:59:28;;;;;;;3.90;2.00;;;;;;;24.16;41.51;99271.38;4881009;29;20027;-73
2023/09/04 11:01:53;;;;;;;3.03;2.08;;;;;;;24.26;41.63;99276.69;4865452;29;20051;-72
2023/09/04 11:04:47;;;;;;;4.90;2.17;;;;;;;24.30;41.20;99283.22;4866898;29;20024;-71
2023/09/04 11:07:21;;;;;;;2.10;1.88;;;;;;;24.52;40.20;99280.53;4902138;29;20040;-72
2023/09/04 11:09:47;;;;;;;4.03;2.10;;;;;;;24.52;41.44;99277.78;4890453;29;20039;-72
2023/09/04 11:12:19;;;;;;;3.72;2.03;;;;;;;24.63;41.01;99275.63;4897494;29;20044;-72
2023/09/04 11:14:45;;;;;;;4.07;1.92;;;;;;;24.72;41.04;99276.50;4896413;29;20037;-72
2023/09/04 11:17:11;;;;;;;3.30;2.00;;;;;;;24.68;40.21;99270.81;4880742;29;20088;-72
2023/09/04 11:19:37;;;;;;;2.08;1.75;;;;;;;24.70;41.54;99251.19;4896109;29;20068;-74
2023/09/04 11:22:02;;;;;;;2.38;2.00;;;;;;;24.84;40.98;99264.97;4880376;29;20407;-74
2023/09/04 11:24:29;;;;;;;2.40;1.85;;;;;;;24.90;39.41;99258.22;4880381;29;20052;-74
2023/09/04 11:26:55;;;;;;;2.67;2.00;;;;;;;25.01;39.25;99256.84;4896105;29;20029;-74
2023/09/04 11:29:20;;;;;;;2.38;2.00;;;;;;;24.92;39.58;99250.44;4896067;29;20037;-74
2023/09/04 11:31:46;;;;;;;3.17;1.80;;;;;;;25.01;38.39;99254.09;4879995;29;20029;-74